sensor_id;sensor_type;location;lat;lon;timestamp;pressure;altitude;pressure_sealevel;temperature;humidity
64521;BME280;50896;46.714;17.322;2023-02-22T00:00:58;100621.50;;;5.01;100.00
64521;BME280;50896;46.714;17.322;2023-02-22T00:03:48;100614.31;;;5.03;100.00
64521;BME280;50896;46.714;17.322;2023-02-22T00:06:18;100622.69;;;4.96;100.00
64521;BME280;50896;46.714;17.322;2023-02-22T00:08:46;100621.50;;;4.89;100.00
64521;BME280;50896;46.714;17.322;2023-02-22T00:11:15;100617.44;;;4.85;100.00
64521;BME280;50896;46.714;17.322;2023-02-22T00:13:43;100620.91;;;4.74;100.00
64521;BME280;50896;46.714;17.322;2023-02-22T00:16:20;100613.84;;;4.64;100.00
64521;BME280;50896;46.714;17.322;2023-02-22T00:18:47;100601.75;;;4.50;100.00
64521;BME280;50896;46.714;17.322;2023-02-22T00:21:16;100594.22;;;4.56;100.00
64521;BME280;50896;46.714;17.322;2023-02-22T00:23:45;100619.50;;;4.70;100.00
64521;BME280;50896;46.714;17.322;2023-02-22T00:26:14;100616.94;;;4.69;100.00
64521;BME280;50896;46.714;17.322;2023-02-22T00:28:46;100599.69;;;4.53;100.00
64521;BME280;50896;46.714;17.322;2023-02-22T00:31:13;100602.56;;;4.50;100.00
64521;BME280;50896;46.714;17.322;2023-02-22T00:33:41;100631.22;;;4.66;100.00
64521;BME280;50896;46.714;17.322;2023-02-22T00:36:11;100605.09;;;4.52;100.00
64521;BME280;50896;46.714;17.322;2023-02-22T00:38:39;100623.66;;;4.61;100.00
64521;BME280;50896;46.714;17.322;2023-02-22T00:41:07;100627.72;;;4.54;100.00
64521;BME280;50896;46.714;17.322;2023-02-22T00:43:34;100628.31;;;4.47;100.00
64521;BME280;50896;46.714;17.322;2023-02-22T00:46:01;100630.06;;;4.35;100.00
64521;BME280;50896;46.714;17.322;2023-02-22T00:48:28;100623.00;;;4.35;100.00
64521;BME280;50896;46.714;17.322;2023-02-22T00:50:55;100625.56;;;4.37;100.00
64521;BME280;50896;46.714;17.322;2023-02-22T00:53:24;100626.34;;;4.26;100.00
64521;BME280;50896;46.714;17.322;2023-02-22T00:55:51;100622.28;;;4.22;100.00
64521;BME280;50896;46.714;17.322;2023-02-22T00:58:19;100620.16;;;4.27;100.00
64521;BME280;50896;46.714;17.322;2023-02-22T01:00:47;100628.75;;;4.29;100.00
64521;BME280;50896;46.714;17.322;2023-02-22T01:03:17;100601.91;;;4.13;100.00
64521;BME280;50896;46.714;17.322;2023-02-22T01:05:45;100622.28;;;4.22;100.00
64521;BME280;50896;46.714;17.322;2023-02-22T01:08:14;100614.47;;;4.09;100.00
64521;BME280;50896;46.714;17.322;2023-02-22T01:10:42;100613.25;;;4.02;100.00
64521;BME280;50896;46.714;17.322;2023-02-22T01:13:10;100619.09;;;3.94;100.00
64521;BME280;50896;46.714;17.322;2023-02-22T01:15:40;100628.50;;;3.85;100.00
64521;BME280;50896;46.714;17.322;2023-02-22T01:18:08;100621.78;;;3.81;100.00
64521;BME280;50896;46.714;17.322;2023-02-22T01:20:35;100618.78;;;3.74;100.00
64521;BME280;50896;46.714;17.322;2023-02-22T01:23:03;100625.25;;;3.82;100.00
64521;BME280;50896;46.714;17.322;2023-02-22T01:25:33;100625.38;;;3.80;100.00
64521;BME280;50896;46.714;17.322;2023-02-22T01:28:03;100625.59;;;3.77;100.00
64521;BME280;50896;46.714;17.322;2023-02-22T01:30:32;100603.06;;;3.62;100.00
64521;BME280;50896;46.714;17.322;2023-02-22T01:33:01;100601.25;;;3.62;100.00
64521;BME280;50896;46.714;17.322;2023-02-22T01:35:34;100626.03;;;3.71;100.00
64521;BME280;50896;46.714;17.322;2023-02-22T01:38:01;100625.44;;;3.67;100.00
64521;BME280;50896;46.714;17.322;2023-02-22T01:40:32;100607.16;;;3.66;100.00
64521;BME280;50896;46.714;17.322;2023-02-22T01:43:05;100596.94;;;3.61;100.00
64521;BME280;50896;46.714;17.322;2023-02-22T01:45:59;100624.09;;;3.62;100.00
64521;BME280;50896;46.714;17.322;2023-02-22T01:48:31;100623.53;;;3.69;100.00
64521;BME280;50896;46.714;17.322;2023-02-22T01:51:12;100599.28;;;3.53;100.00
64521;BME280;50896;46.714;17.322;2023-02-22T01:56:51;100622.00;;;3.54;100.00
64521;BME280;50896;46.714;17.322;2023-02-22T01:59:20;100616.16;;;3.50;100.00
64521;BME280;50896;46.714;17.322;2023-02-22T02:01:48;100625.09;;;3.48;100.00
64521;BME280;50896;46.714;17.322;2023-02-22T02:04:19;100617.00;;;3.51;100.00
64521;BME280;50896;46.714;17.322;2023-02-22T02:06:55;100617.50;;;3.56;100.00
64521;BME280;50896;46.714;17.322;2023-02-22T02:09:29;100616.75;;;3.54;100.00
64521;BME280;50896;46.714;17.322;2023-02-22T02:11:59;100607.31;;;3.51;100.00
64521;BME280;50896;46.714;17.322;2023-02-22T02:14:28;100607.53;;;3.48;100.00
64521;BME280;50896;46.714;17.322;2023-02-22T02:16:58;100601.56;;;3.46;100.00
64521;BME280;50896;46.714;17.322;2023-02-22T02:19:59;100590.47;;;3.30;100.00
64521;BME280;50896;46.714;17.322;2023-02-22T02:23:03;100610.72;;;3.40;100.00
64521;BME280;50896;46.714;17.322;2023-02-22T02:37:55;100599.25;;;3.41;100.00
64521;BME280;50896;46.714;17.322;2023-02-22T02:40:46;100596.03;;;3.38;100.00
64521;BME280;50896;46.714;17.322;2023-02-22T02:46:24;100592.53;;;3.37;100.00
64521;BME280;50896;46.714;17.322;2023-02-22T02:48:58;100593.16;;;3.41;100.00
64521;BME280;50896;46.714;17.322;2023-02-22T02:51:31;100600.09;;;3.42;100.00
64521;BME280;50896;46.714;17.322;2023-02-22T02:54:00;100597.34;;;3.44;100.00
64521;BME280;50896;46.714;17.322;2023-02-22T02:56:27;100599.88;;;3.45;100.00
64521;BME280;50896;46.714;17.322;2023-02-22T02:58:55;100598.41;;;3.41;100.00
64521;BME280;50896;46.714;17.322;2023-02-22T03:01:35;100593.03;;;3.42;100.00
64521;BME280;50896;46.714;17.322;2023-02-22T03:15:08;100596.50;;;3.43;100.00
64521;BME280;50896;46.714;17.322;2023-02-22T03:17:51;100603.56;;;3.42;100.00
64521;BME280;50896;46.714;17.322;2023-02-22T03:20:54;100607.13;;;3.41;100.00
64521;BME280;50896;46.714;17.322;2023-02-22T03:23:46;100613.25;;;3.42;100.00
64521;BME280;50896;46.714;17.322;2023-02-22T03:26:21;100603.91;;;3.25;100.00
64521;BME280;50896;46.714;17.322;2023-02-22T03:28:54;100587.91;;;3.17;100.00
64521;BME280;50896;46.714;17.322;2023-02-22T03:31:27;100604.38;;;3.19;100.00
64521;BME280;50896;46.714;17.322;2023-02-22T03:34:00;100579.19;;;3.03;100.00
64521;BME280;50896;46.714;17.322;2023-02-22T03:36:34;100605.00;;;3.22;100.00
64521;BME280;50896;46.714;17.322;2023-02-22T03:39:07;100604.25;;;3.20;100.00
64521;BME280;50896;46.714;17.322;2023-02-22T03:41:37;100582.94;;;3.12;100.00
64521;BME280;50896;46.714;17.322;2023-02-22T03:44:08;100611.59;;;3.28;100.00
64521;BME280;50896;46.714;17.322;2023-02-22T03:46:38;100606.84;;;3.33;100.00
64521;BME280;50896;46.714;17.322;2023-02-22T03:51:42;100593.50;;;3.36;100.00
64521;BME280;50896;46.714;17.322;2023-02-22T03:54:09;100590.47;;;3.30;100.00
64521;BME280;50896;46.714;17.322;2023-02-22T03:56:51;100594.75;;;3.31;100.00
64521;BME280;50896;46.714;17.322;2023-02-22T03:59:21;100602.31;;;3.35;100.00
64521;BME280;50896;46.714;17.322;2023-02-22T04:01:53;100612.31;;;3.30;100.00
64521;BME280;50896;46.714;17.322;2023-02-22T04:04:21;100605.59;;;3.26;100.00
64521;BME280;50896;46.714;17.322;2023-02-22T04:06:52;100612.78;;;3.24;100.00
64521;BME280;50896;46.714;17.322;2023-02-22T04:09:20;100616.13;;;3.26;100.00
64521;BME280;50896;46.714;17.322;2023-02-22T04:11:47;100606.00;;;3.08;100.00
64521;BME280;50896;46.714;17.322;2023-02-22T04:14:14;100622.13;;;3.15;100.00
64521;BME280;50896;46.714;17.322;2023-02-22T04:16:41;100607.34;;;3.14;100.00
64521;BME280;50896;46.714;17.322;2023-02-22T04:19:08;100622.13;;;3.15;100.00
64521;BME280;50896;46.714;17.322;2023-02-22T04:21:37;100602.09;;;3.01;100.00
64521;BME280;50896;46.714;17.322;2023-02-22T04:24:08;100625.22;;;3.09;100.00
64521;BME280;50896;46.714;17.322;2023-02-22T04:26:36;100623.63;;;3.06;100.00
64521;BME280;50896;46.714;17.322;2023-02-22T04:29:04;100591.31;;;2.93;100.00
64521;BME280;50896;46.714;17.322;2023-02-22T04:31:37;100612.72;;;3.00;100.00
64521;BME280;50896;46.714;17.322;2023-02-22T04:34:05;100619.78;;;2.99;100.00
64521;BME280;50896;46.714;17.322;2023-02-22T04:36:35;100620.59;;;3.00;100.00
64521;BME280;50896;46.714;17.322;2023-02-22T04:39:03;100624.78;;;3.02;100.00
64521;BME280;50896;46.714;17.322;2023-02-22T04:41:31;100624.38;;;2.96;100.00
64521;BME280;50896;46.714;17.322;2023-02-22T04:43:59;100619.03;;;2.97;100.00
64521;BME280;50896;46.714;17.322;2023-02-22T04:46:26;100604.66;;;2.90;100.00
64521;BME280;50896;46.714;17.322;2023-02-22T04:48:54;100619.13;;;2.96;100.00
64521;BME280;50896;46.714;17.322;2023-02-22T04:51:24;100620.41;;;2.90;100.00
64521;BME280;50896;46.714;17.322;2023-02-22T04:54:05;100619.25;;;2.94;100.00
64521;BME280;50896;46.714;17.322;2023-02-22T04:56:34;100624.00;;;2.89;100.00
64521;BME280;50896;46.714;17.322;2023-02-22T04:59:01;100611.25;;;2.96;100.00
64521;BME280;50896;46.714;17.322;2023-02-22T05:01:32;100613.88;;;2.96;100.00
64521;BME280;50896;46.714;17.322;2023-02-22T05:04:04;100616.00;;;2.78;100.00
64521;BME280;50896;46.714;17.322;2023-02-22T05:06:32;100620.97;;;2.69;100.00
64521;BME280;50896;46.714;17.322;2023-02-22T05:08:58;100617.72;;;2.53;100.00
64521;BME280;50896;46.714;17.322;2023-02-22T05:11:25;100617.19;;;2.61;100.00
64521;BME280;50896;46.714;17.322;2023-02-22T05:13:52;100620.34;;;2.66;100.00
64521;BME280;50896;46.714;17.322;2023-02-22T05:16:19;100618.22;;;2.58;100.00
64521;BME280;50896;46.714;17.322;2023-02-22T05:18:46;100625.50;;;2.54;100.00
64521;BME280;50896;46.714;17.322;2023-02-22T05:21:12;100612.59;;;2.51;100.00
64521;BME280;50896;46.714;17.322;2023-02-22T05:23:39;100617.72;;;2.53;100.00
64521;BME280;50896;46.714;17.322;2023-02-22T05:26:07;100618.22;;;2.58;100.00
64521;BME280;50896;46.714;17.322;2023-02-22T05:28:36;100626.09;;;2.58;100.00
64521;BME280;50896;46.714;17.322;2023-02-22T05:31:04;100609.53;;;2.45;100.00
64521;BME280;50896;46.714;17.322;2023-02-22T05:33:33;100626.97;;;2.59;100.00
64521;BME280;50896;46.714;17.322;2023-02-22T05:36:00;100626.97;;;2.46;100.00
64521;BME280;50896;46.714;17.322;2023-02-22T05:38:27;100630.97;;;2.51;100.00
64521;BME280;50896;46.714;17.322;2023-02-22T05:40:54;100612.66;;;2.37;100.00
64521;BME280;50896;46.714;17.322;2023-02-22T05:43:22;100633.69;;;2.50;100.00
64521;BME280;50896;46.714;17.322;2023-02-22T05:45:49;100632.94;;;2.48;100.00
64521;BME280;50896;46.714;17.322;2023-02-22T05:48:15;100629.81;;;2.55;100.00
64521;BME280;50896;46.714;17.322;2023-02-22T05:50:42;100634.41;;;2.65;100.00
64521;BME280;50896;46.714;17.322;2023-02-22T05:53:09;100646.47;;;2.67;100.00
64521;BME280;50896;46.714;17.322;2023-02-22T05:55:36;100636.72;;;2.69;100.00
64521;BME280;50896;46.714;17.322;2023-02-22T05:58:03;100638.28;;;2.72;100.00
64521;BME280;50896;46.714;17.322;2023-02-22T06:00:32;100650.69;;;2.70;100.00
64521;BME280;50896;46.714;17.322;2023-02-22T06:03:04;100641.44;;;2.64;100.00
64521;BME280;50896;46.714;17.322;2023-02-22T06:05:32;100657.72;;;2.82;100.00
64521;BME280;50896;46.714;17.322;2023-02-22T06:08:00;100655.50;;;2.89;100.00
64521;BME280;50896;46.714;17.322;2023-02-22T06:10:27;100657.06;;;2.91;100.00
64521;BME280;50896;46.714;17.322;2023-02-22T06:12:55;100661.78;;;2.99;100.00
64521;BME280;50896;46.714;17.322;2023-02-22T06:15:23;100669.16;;;3.07;100.00
64521;BME280;50896;46.714;17.322;2023-02-22T06:17:52;100670.69;;;3.10;100.00
64521;BME280;50896;46.714;17.322;2023-02-22T06:20:21;100654.84;;;2.98;100.00
64521;BME280;50896;46.714;17.322;2023-02-22T06:22:49;100670.69;;;3.10;100.00
64521;BME280;50896;46.714;17.322;2023-02-22T06:25:19;100672.91;;;3.16;100.00
64521;BME280;50896;46.714;17.322;2023-02-22T06:27:46;100678.47;;;3.24;100.00
64521;BME280;50896;46.714;17.322;2023-02-22T06:30:14;100680.91;;;3.14;100.00
64521;BME280;50896;46.714;17.322;2023-02-22T06:32:41;100673.72;;;3.29;100.00
64521;BME280;50896;46.714;17.322;2023-02-22T06:35:08;100683.69;;;3.37;100.00
64521;BME280;50896;46.714;17.322;2023-02-22T06:37:35;100680.78;;;3.53;100.00
64521;BME280;50896;46.714;17.322;2023-02-22T06:40:02;100679.50;;;3.58;100.00
64521;BME280;50896;46.714;17.322;2023-02-22T06:42:31;100665.41;;;3.59;100.00
64521;BME280;50896;46.714;17.322;2023-02-22T06:44:58;100684.75;;;3.71;100.00
64521;BME280;50896;46.714;17.322;2023-02-22T06:47:25;100677.16;;;3.80;100.00
64521;BME280;50896;46.714;17.322;2023-02-22T06:49:53;100695.97;;;3.98;100.00
64521;BME280;50896;46.714;17.322;2023-02-22T06:52:20;100693.50;;;4.07;100.00
64521;BME280;50896;46.714;17.322;2023-02-22T06:54:47;100692.13;;;4.15;100.00
64521;BME280;50896;46.714;17.322;2023-02-22T06:57:14;100690.47;;;4.25;100.00
64521;BME280;50896;46.714;17.322;2023-02-22T06:59:41;100673.13;;;4.22;100.00
64521;BME280;50896;46.714;17.322;2023-02-22T07:02:10;100683.66;;;4.34;100.00
64521;BME280;50896;46.714;17.322;2023-02-22T07:04:37;100701.44;;;4.54;100.00
64521;BME280;50896;46.714;17.322;2023-02-22T07:07:06;100705.03;;;4.65;100.00
64521;BME280;50896;46.714;17.322;2023-02-22T07:09:33;100700.78;;;4.75;100.00
64521;BME280;50896;46.714;17.322;2023-02-22T07:12:00;100703.28;;;4.88;100.00
64521;BME280;50896;46.714;17.322;2023-02-22T07:14:27;100680.41;;;4.88;100.00
64521;BME280;50896;46.714;17.322;2023-02-22T07:16:53;100691.09;;;5.09;100.00
64521;BME280;50896;46.714;17.322;2023-02-22T07:19:20;100694.69;;;5.20;100.00
64521;BME280;50896;46.714;17.322;2023-02-22T07:21:47;100694.81;;;5.29;100.00
64521;BME280;50896;46.714;17.322;2023-02-22T07:24:14;100672.63;;;5.32;100.00
64521;BME280;50896;46.714;17.322;2023-02-22T07:26:41;100693.34;;;5.48;100.00
64521;BME280;50896;46.714;17.322;2023-02-22T07:29:08;100681.13;;;5.47;100.00
64521;BME280;50896;46.714;17.322;2023-02-22T07:31:37;100698.59;;;5.59;100.00
64521;BME280;50896;46.714;17.322;2023-02-22T07:34:04;100684.91;;;5.65;100.00
64521;BME280;50896;46.714;17.322;2023-02-22T07:36:31;100677.94;;;5.76;100.00
64521;BME280;50896;46.714;17.322;2023-02-22T07:38:58;100692.38;;;5.93;100.00
64521;BME280;50896;46.714;17.322;2023-02-22T07:41:25;100667.69;;;5.94;100.00
64521;BME280;50896;46.714;17.322;2023-02-22T07:43:52;100682.28;;;6.09;100.00
64521;BME280;50896;46.714;17.322;2023-02-22T07:46:18;100691.56;;;6.25;100.00
64521;BME280;50896;46.714;17.322;2023-02-22T07:48:45;100679.78;;;6.29;100.00
64521;BME280;50896;46.714;17.322;2023-02-22T07:51:14;100673.63;;;6.40;100.00
64521;BME280;50896;46.714;17.322;2023-02-22T07:53:42;100676.00;;;6.43;100.00
64521;BME280;50896;46.714;17.322;2023-02-22T07:56:09;100674.22;;;6.43;100.00
64521;BME280;50896;46.714;17.322;2023-02-22T07:58:36;100662.22;;;6.39;100.00
64521;BME280;50896;46.714;17.322;2023-02-22T08:01:03;100683.41;;;6.49;100.00
64521;BME280;50896;46.714;17.322;2023-02-22T08:03:32;100687.22;;;6.56;100.00
64521;BME280;50896;46.714;17.322;2023-02-22T08:06:05;100685.19;;;6.48;100.00
64521;BME280;50896;46.714;17.322;2023-02-22T08:08:32;100667.50;;;6.39;100.00
64521;BME280;50896;46.714;17.322;2023-02-22T08:11:00;100683.03;;;6.54;100.00
64521;BME280;50896;46.714;17.322;2023-02-22T08:13:27;100675.41;;;6.60;100.00
64521;BME280;50896;46.714;17.322;2023-02-22T08:15:54;100677.72;;;6.75;100.00
64521;BME280;50896;46.714;17.322;2023-02-22T08:18:22;100669.84;;;6.84;100.00
64521;BME280;50896;46.714;17.322;2023-02-22T08:20:51;100673.94;;;6.98;100.00
64521;BME280;50896;46.714;17.322;2023-02-22T08:23:20;100660.59;;;7.00;100.00
64521;BME280;50896;46.714;17.322;2023-02-22T08:25:48;100672.34;;;7.17;100.00
64521;BME280;50896;46.714;17.322;2023-02-22T08:28:17;100665.16;;;7.29;100.00
64521;BME280;50896;46.714;17.322;2023-02-22T08:30:45;100662.66;;;7.37;100.00
64521;BME280;50896;46.714;17.322;2023-02-22T08:33:14;100661.69;;;7.48;100.00
64521;BME280;50896;46.714;17.322;2023-02-22T08:35:42;100660.88;;;7.57;100.00
64521;BME280;50896;46.714;17.322;2023-02-22T08:38:29;100659.22;;;7.66;100.00
64521;BME280;50896;46.714;17.322;2023-02-22T08:40:57;100648.22;;;7.61;100.00
64521;BME280;50896;46.714;17.322;2023-02-22T08:43:24;100660.78;;;7.78;100.00
64521;BME280;50896;46.714;17.322;2023-02-22T08:45:51;100648.78;;;7.74;100.00
64521;BME280;50896;46.714;17.322;2023-02-22T08:48:21;100655.63;;;7.86;100.00
64521;BME280;50896;46.714;17.322;2023-02-22T08:50:48;100650.19;;;7.88;100.00
64521;BME280;50896;46.714;17.322;2023-02-22T08:53:15;100662.19;;;8.02;100.00
64521;BME280;50896;46.714;17.322;2023-02-22T08:55:42;100649.66;;;8.04;100.00
64521;BME280;50896;46.714;17.322;2023-02-22T08:58:10;100669.72;;;8.07;100.00
64521;BME280;50896;46.714;17.322;2023-02-22T09:00:39;100662.03;;;8.13;100.00
64521;BME280;50896;46.714;17.322;2023-02-22T09:03:08;100662.31;;;8.20;100.00
64521;BME280;50896;46.714;17.322;2023-02-22T09:05:36;100656.19;;;8.29;100.00
64521;BME280;50896;46.714;17.322;2023-02-22T09:08:03;100660.75;;;8.37;100.00
64521;BME280;50896;46.714;17.322;2023-02-22T09:10:32;100665.38;;;8.45;100.00
64521;BME280;50896;46.714;17.322;2023-02-22T09:12:59;100660.91;;;8.55;100.00
64521;BME280;50896;46.714;17.322;2023-02-22T09:15:27;100663.00;;;8.61;100.00
64521;BME280;50896;46.714;17.322;2023-02-22T09:17:54;100653.47;;;8.68;100.00
64521;BME280;50896;46.714;17.322;2023-02-22T09:20:22;100644.00;;;8.66;100.00
64521;BME280;50896;46.714;17.322;2023-02-22T09:22:49;100658.88;;;8.86;100.00
64521;BME280;50896;46.714;17.322;2023-02-22T09:25:17;100649.63;;;8.91;100.00
64521;BME280;50896;46.714;17.322;2023-02-22T09:27:50;100657.00;;;8.97;100.00
64521;BME280;50896;46.714;17.322;2023-02-22T09:30:30;100648.31;;;9.04;100.00
64521;BME280;50896;46.714;17.322;2023-02-22T09:33:09;100649.84;;;9.07;100.00
64521;BME280;50896;46.714;17.322;2023-02-22T09:35:38;100649.94;;;9.15;100.00
64521;BME280;50896;46.714;17.322;2023-02-22T09:38:08;100641.91;;;9.07;100.00
64521;BME280;50896;46.714;17.322;2023-02-22T09:40:40;100648.38;;;9.22;100.00
64521;BME280;50896;46.714;17.322;2023-02-22T09:46:08;100651.81;;;9.33;100.00
64521;BME280;50896;46.714;17.322;2023-02-22T09:49:14;100652.06;;;9.39;100.00
64521;BME280;50896;46.714;17.322;2023-02-22T09:51:51;100653.59;;;9.42;100.00
64521;BME280;50896;46.714;17.322;2023-02-22T09:54:26;100634.59;;;9.37;100.00
64521;BME280;50896;46.714;17.322;2023-02-22T09:57:01;100652.31;;;9.46;100.00
64521;BME280;50896;46.714;17.322;2023-02-22T09:59:33;100621.03;;;9.40;100.00
64521;BME280;50896;46.714;17.322;2023-02-22T10:04:43;100636.16;;;9.75;100.00
64521;BME280;50896;46.714;17.322;2023-02-22T10:07:32;100632.91;;;9.82;100.00
64521;BME280;50896;46.714;17.322;2023-02-22T10:10:03;100616.81;;;9.83;100.00
64521;BME280;50896;46.714;17.322;2023-02-22T10:12:55;100629.34;;;9.91;100.00
64521;BME280;50896;46.714;17.322;2023-02-22T10:24:03;100602.66;;;10.19;100.00
64521;BME280;50896;46.714;17.322;2023-02-22T10:26:35;100610.97;;;10.42;100.00
64521;BME280;50896;46.714;17.322;2023-02-22T10:29:08;100609.06;;;10.52;100.00
64521;BME280;50896;46.714;17.322;2023-02-22T10:31:40;100601.91;;;10.53;100.00
64521;BME280;50896;46.714;17.322;2023-02-22T10:34:18;100599.84;;;10.65;100.00
64521;BME280;50896;46.714;17.322;2023-02-22T10:36:50;100603.25;;;10.83;100.00
64521;BME280;50896;46.714;17.322;2023-02-22T10:39:30;100573.94;;;10.75;100.00
64521;BME280;50896;46.714;17.322;2023-02-22T10:42:02;100591.97;;;10.98;100.00
64521;BME280;50896;46.714;17.322;2023-02-22T10:44:35;100600.69;;;11.08;100.00
64521;BME280;50896;46.714;17.322;2023-02-22T10:47:06;100593.81;;;10.97;100.00
64521;BME280;50896;46.714;17.322;2023-02-22T10:49:37;100597.34;;;11.06;100.00
64521;BME280;50896;46.714;17.322;2023-02-22T10:52:21;100568.44;;;11.11;100.00
64521;BME280;50896;46.714;17.322;2023-02-22T10:54:49;100579.41;;;11.24;100.00
64521;BME280;50896;46.714;17.322;2023-02-22T10:57:48;100571.47;;;11.41;100.00
64521;BME280;50896;46.714;17.322;2023-02-22T11:00:18;100568.31;;;11.45;100.00
64521;BME280;50896;46.714;17.322;2023-02-22T11:02:58;100565.84;;;11.69;100.00
64521;BME280;50896;46.714;17.322;2023-02-22T11:05:37;100559.53;;;11.86;100.00
64521;BME280;50896;46.714;17.322;2023-02-22T11:10:52;100554.88;;;12.21;100.00
64521;BME280;50896;46.714;17.322;2023-02-22T11:13:25;100553.88;;;12.14;100.00
64521;BME280;50896;46.714;17.322;2023-02-22T11:15:54;100540.66;;;12.37;100.00
64521;BME280;50896;46.714;17.322;2023-02-22T11:18:25;100534.47;;;12.45;100.00
64521;BME280;50896;46.714;17.322;2023-02-22T11:21:07;100543.91;;;12.56;100.00
64521;BME280;50896;46.714;17.322;2023-02-22T11:23:36;100534.28;;;12.55;100.00
64521;BME280;50896;46.714;17.322;2023-02-22T11:26:09;100522.50;;;12.80;100.00
64521;BME280;50896;46.714;17.322;2023-02-22T11:28:45;100527.19;;;13.41;100.00
64521;BME280;50896;46.714;17.322;2023-02-22T11:31:21;100510.22;;;15.07;100.00
64521;BME280;50896;46.714;17.322;2023-02-22T11:33:52;100505.66;;;16.64;100.00
64521;BME280;50896;46.714;17.322;2023-02-22T11:39:05;100499.88;;;19.77;46.02
64521;BME280;50896;46.714;17.322;2023-02-22T11:41:37;100487.97;;;21.26;40.19
64521;BME280;50896;46.714;17.322;2023-02-22T11:44:29;100480.41;;;23.62;35.30
64521;BME280;50896;46.714;17.322;2023-02-22T11:46:59;100479.47;;;25.29;32.22
64521;BME280;50896;46.714;17.322;2023-02-22T11:49:37;100481.84;;;25.20;31.73
64521;BME280;50896;46.714;17.322;2023-02-22T11:52:23;100483.03;;;25.02;31.89
64521;BME280;50896;46.714;17.322;2023-02-22T11:57:37;100468.88;;;23.55;33.74
64521;BME280;50896;46.714;17.322;2023-02-22T12:08:22;100466.59;;;21.37;37.28
64521;BME280;50896;46.714;17.322;2023-02-22T12:10:59;100453.94;;;20.95;38.14
64521;BME280;50896;46.714;17.322;2023-02-22T12:19:54;100440.44;;;20.27;39.53
64521;BME280;50896;46.714;17.322;2023-02-22T12:22:31;100453.56;;;20.24;39.07
64521;BME280;50896;46.714;17.322;2023-02-22T12:25:19;100452.84;;;19.16;41.15
64521;BME280;50896;46.714;17.322;2023-02-22T12:27:58;100465.78;;;17.56;45.06
64521;BME280;50896;46.714;17.322;2023-02-22T12:30:32;100455.31;;;16.72;47.15
64521;BME280;50896;46.714;17.322;2023-02-22T12:33:11;100455.66;;;16.08;48.75
64521;BME280;50896;46.714;17.322;2023-02-22T12:35:43;100432.78;;;15.55;49.92
64521;BME280;50896;46.714;17.322;2023-02-22T12:38:20;100451.69;;;15.03;50.83
64521;BME280;50896;46.714;17.322;2023-02-22T12:40:55;100441.72;;;14.61;51.67
64521;BME280;50896;46.714;17.322;2023-02-22T12:43:32;100435.06;;;13.90;53.91
64521;BME280;50896;46.714;17.322;2023-02-22T12:46:20;100448.31;;;13.68;55.47
64521;BME280;50896;46.714;17.322;2023-02-22T12:51:48;100429.53;;;13.15;56.92
64521;BME280;50896;46.714;17.322;2023-02-22T12:59:52;100427.13;;;12.82;58.33
64521;BME280;50896;46.714;17.322;2023-02-22T13:02:27;100416.28;;;12.84;56.86
64521;BME280;50896;46.714;17.322;2023-02-22T13:04:56;100416.69;;;12.73;57.51
64521;BME280;50896;46.714;17.322;2023-02-22T13:21:39;100430.88;;;12.34;60.50
64521;BME280;50896;46.714;17.322;2023-02-22T13:24:47;100417.25;;;12.20;60.82
64521;BME280;50896;46.714;17.322;2023-02-22T13:27:34;100418.13;;;12.12;60.83
64521;BME280;50896;46.714;17.322;2023-02-22T13:30:05;100420.66;;;12.06;61.81
64521;BME280;50896;46.714;17.322;2023-02-22T13:35:44;100421.16;;;12.01;62.76
64521;BME280;50896;46.714;17.322;2023-02-22T13:52:12;100402.56;;;11.76;64.79
64521;BME280;50896;46.714;17.322;2023-02-22T13:54:49;100384.25;;;11.65;64.53
64521;BME280;50896;46.714;17.322;2023-02-22T13:57:40;100397.56;;;11.73;64.02
64521;BME280;50896;46.714;17.322;2023-02-22T14:10:51;100377.19;;;11.89;62.37
64521;BME280;50896;46.714;17.322;2023-02-22T14:13:20;100400.34;;;11.88;63.06
64521;BME280;50896;46.714;17.322;2023-02-22T14:18:40;100381.09;;;11.78;63.48
64521;BME280;50896;46.714;17.322;2023-02-22T14:21:14;100391.38;;;11.89;64.35
64521;BME280;50896;46.714;17.322;2023-02-22T14:23:43;100390.38;;;11.90;63.75
64521;BME280;50896;46.714;17.322;2023-02-22T14:26:32;100381.72;;;11.88;64.14
64521;BME280;50896;46.714;17.322;2023-02-22T14:31:33;100384.19;;;11.98;64.90
64521;BME280;50896;46.714;17.322;2023-02-22T14:34:14;100368.38;;;12.05;64.39
64521;BME280;50896;46.714;17.322;2023-02-22T14:45:04;100368.28;;;12.21;63.96
64521;BME280;50896;46.714;17.322;2023-02-22T14:47:43;100371.47;;;12.17;63.33
64521;BME280;50896;46.714;17.322;2023-02-22T14:50:26;100375.03;;;11.92;64.25
64521;BME280;50896;46.714;17.322;2023-02-22T14:53:00;100371.94;;;11.72;64.57
64521;BME280;50896;46.714;17.322;2023-02-22T14:55:30;100376.78;;;11.60;64.86
64521;BME280;50896;46.714;17.322;2023-02-22T14:58:06;100372.16;;;11.54;64.94
64521;BME280;50896;46.714;17.322;2023-02-22T15:00:38;100362.69;;;11.35;65.36
64521;BME280;50896;46.714;17.322;2023-02-22T15:03:29;100366.50;;;11.33;66.01
64521;BME280;50896;46.714;17.322;2023-02-22T15:06:26;100366.03;;;11.21;66.82
64521;BME280;50896;46.714;17.322;2023-02-22T15:09:16;100372.69;;;11.08;67.55
64521;BME280;50896;46.714;17.322;2023-02-22T15:14:30;100358.56;;;10.91;69.57
64521;BME280;50896;46.714;17.322;2023-02-22T15:17:01;100361.41;;;10.90;69.79